Time;durP1;ratioP1;P1;durP2;ratioP2;P2;SDS_P1;SDS_P2;PMS_P1;PMS_P2;Temp;Humidity;BMP_temperature;BMP_pressure;BME280_temperature;BME280_humidity;BME280_pressure;Samples;Min_cycle;Max_cycle;Signal;HPM_P1;HPM_P2
2022/09/03 08:51:28;;;;;;;4.17;1.60;;;;;;;22.13;nan;101397.03;6277724;22;20465;-91
2022/09/03 08:53:59;;;;;;;6.57;1.77;;;;;;;22.11;nan;101388.06;6225686;22;20887;-91
2022/09/03 08:56:32;;;;;;;6.67;1.20;;;;;;;22.28;nan;101405.59;6202366;22;20409;-91
2022/09/03 08:59:04;;;;;;;6.73;1.47;;;;;;;22.41;nan;101405.22;6226263;22;20935;-91
2022/09/03 09:02:10;;;;;;;5.60;1.63;;;;;;;22.53;nan;101414.31;6225371;22;20409;-91
2022/09/03 09:08:59;;;;;;;7.13;1.77;;;;;;;22.63;nan;101414.47;6277974;22;20386;-91
2022/09/03 09:12:04;;;;;;;3.20;1.40;;;;;;;22.65;nan;101425.38;6226216;22;20409;-91
2022/09/03 09:14:54;;;;;;;6.20;1.63;;;;;;;22.77;nan;101423.31;6251075;22;20472;-91
2022/09/03 09:18:00;;;;;;;3.47;1.20;;;;;;;22.87;nan;101428.22;6225681;22;20398;-91
2022/09/03 09:21:05;;;;;;;3.43;1.17;;;;;;;22.92;nan;101429.09;6250496;22;20463;-91
2022/09/03 09:23:42;;;;;;;4.90;1.20;;;;;;;22.82;nan;101434.56;6250675;22;20771;-91
2022/09/03 09:26:18;;;;;;;4.93;1.53;;;;;;;22.98;nan;101439.22;6202590;22;20378;-92
2022/09/03 09:28:57;;;;;;;4.40;1.10;;;;;;;23.02;nan;101425.59;6226604;22;20424;-91
2022/09/03 09:31:34;;;;;;;5.10;1.63;;;;;;;23.23;nan;101449.84;6204397;22;20420;-91
2022/09/03 09:34:07;;;;;;;4.93;1.60;;;;;;;23.29;nan;101450.72;6251491;22;20447;-91
2022/09/03 09:36:50;;;;;;;5.93;1.13;;;;;;;23.45;nan;101441.47;6201283;22;20409;-91
2022/09/03 09:39:18;;;;;;;5.90;1.70;;;;;;;23.51;nan;101445.13;6201264;22;20430;-92
2022/09/03 09:42:10;;;;;;;4.97;1.50;;;;;;;23.64;nan;101441.97;6200962;22;20398;-93
2022/09/03 09:45:11;;;;;;;5.10;1.50;;;;;;;23.65;nan;101449.25;6225240;22;20540;-93
2022/09/03 09:47:58;;;;;;;2.70;1.37;;;;;;;23.69;nan;101444.78;6225608;22;20398;-93
2022/09/03 09:50:30;;;;;;;5.07;1.33;;;;;;;23.75;nan;101454.91;6225805;22;20525;-92
2022/09/03 09:53:16;;;;;;;3.87;1.40;;;;;;;23.75;nan;101457.69;6225643;22;20435;-92
2022/09/03 09:56:00;;;;;;;5.00;1.70;;;;;;;23.81;nan;101456.66;6225722;22;20413;-93
2022/09/03 10:25:00;;;;;;;6.53;1.30;;;;;;;24.92;nan;101450.22;6280454;22;20373;-95
2022/09/03 10:27:29;;;;;;;5.07;1.17;;;;;;;24.69;nan;101441.13;6229292;22;20417;-93
2022/09/03 10:29:59;;;;;;;5.13;1.80;;;;;;;24.81;nan;101454.94;6228271;22;20436;-93
2022/09/03 10:32:37;;;;;;;6.03;1.90;;;;;;;24.97;nan;101451.13;6203235;22;20480;-92
2022/09/03 10:35:18;;;;;;;4.47;1.27;;;;;;;25.08;nan;101454.78;6253592;22;20409;-96
2022/09/03 10:38:17;;;;;;;3.87;1.10;;;;;;;25.14;nan;101436.91;6230638;22;20409;-96
2022/09/03 10:40:55;;;;;;;6.50;1.20;;;;;;;25.24;nan;101448.13;6227529;22;20433;-95
2022/09/03 10:43:51;;;;;;;4.37;1.80;;;;;;;25.25;nan;101435.81;6227328;22;20393;-93
2022/09/03 10:46:25;;;;;;;8.37;2.30;;;;;;;25.23;nan;101426.88;6231442;22;20462;-95
2022/09/03 10:49:33;;;;;;;4.43;1.50;;;;;;;25.41;nan;101439.50;6228261;22;20919;-92
2022/09/03 10:52:24;;;;;;;4.43;1.60;;;;;;;25.49;nan;101436.19;6252624;22;20417;-90
2022/09/03 10:55:22;;;;;;;4.30;1.63;;;;;;;25.25;nan;101407.84;6252033;22;20412;-94
2022/09/03 10:58:16;;;;;;;5.43;1.43;;;;;;;25.42;nan;101425.25;6227874;22;20394;-93
2022/09/03 11:00:52;;;;;;;8.17;1.57;;;;;;;25.51;nan;101430.31;6228708;22;20421;-94
2022/09/03 11:03:58;;;;;;;5.30;1.47;;;;;;;25.65;nan;101423.06;6203213;22;20413;-95
2022/09/03 11:06:29;;;;;;;11.20;4.80;;;;;;;25.79;nan;101407.41;6077876;23;20414;-95
2022/09/03 11:09:10;;;;;;;12.33;4.70;;;;;;;25.91;nan;101410.78;6054714;23;20446;-93
2022/09/03 11:12:02;;;;;;;12.07;5.07;;;;;;;26.15;nan;101425.91;6058883;23;20413;-96
2022/09/03 11:45:33;;;;;;;10.80;3.13;;;;;;;26.88;nan;101405.03;6296830;22;20416;-91
2022/09/03 11:48:22;;;;;;;4.70;1.40;;;;;;;26.89;nan;101437.56;6206048;22;20413;-91
2022/09/03 11:50:54;;;;;;;5.37;1.60;;;;;;;26.96;nan;101416.50;6252339;22;20513;-91
2022/09/03 11:53:27;;;;;;;9.80;2.43;;;;;;;26.78;nan;101387.09;6212932;22;20429;-92
2022/09/03 11:56:04;;;;;;;5.93;2.20;;;;;;;26.66;nan;101414.63;6217359;22;20412;-90
2022/09/03 11:58:41;;;;;;;4.60;1.87;;;;;;;26.59;nan;101383.22;6267343;22;20386;-90
2022/09/03 12:01:16;;;;;;;8.20;1.50;;;;;;;26.64;nan;101388.00;6209160;22;20732;-90
2022/09/03 12:03:57;;;;;;;11.87;2.10;;;;;;;26.50;nan;101387.75;6202731;22;20460;-90
2022/09/03 12:09:57;;;;;;;7.87;1.70;;;;;;;26.76;nan;101380.94;6277804;22;20448;-91
2022/09/03 12:12:59;;;;;;;6.90;1.87;;;;;;;26.86;nan;101377.25;6251406;22;20424;-90
2022/09/03 12:16:07;;;;;;;5.13;2.20;;;;;;;26.90;nan;101386.78;6251477;22;20551;-90
2022/09/03 12:18:35;;;;;;;8.10;2.20;;;;;;;26.83;nan;101401.09;6251444;22;20469;-91
2022/09/03 12:21:16;;;;;;;7.00;1.80;;;;;;;26.92;nan;101380.88;6202132;22;20422;-91
2022/09/03 12:23:51;;;;;;;4.60;1.67;;;;;;;26.98;nan;101385.34;6226308;22;20488;-91
2022/09/03 12:26:28;;;;;;;3.60;1.73;;;;;;;27.05;nan;101392.34;6204753;22;20417;-91
2022/09/03 12:29:04;;;;;;;5.63;1.80;;;;;;;27.15;nan;101381.06;6225689;22;20485;-91
2022/09/03 12:31:45;;;;;;;5.23;2.20;;;;;;;27.28;nan;101382.41;6203139;22;20472;-90
2022/09/03 12:34:20;;;;;;;4.50;1.50;;;;;;;27.42;nan;101386.22;6226267;22;20394;-90
2022/09/03 12:36:52;;;;;;;6.10;1.80;;;;;;;27.42;nan;101386.22;6189538;22;20539;-91
2022/09/03 12:39:27;;;;;;;10.33;1.80;;;;;;;27.57;nan;101387.25;6201576;22;20401;-90
2022/09/03 12:42:27;;;;;;;12.27;3.20;;;;;;;27.61;nan;101377.16;6234525;22;20477;-90
2022/09/03 12:44:55;;;;;;;7.73;2.70;;;;;;;27.68;nan;101388.91;6226123;22;20513;-90
2022/09/03 12:47:24;;;;;;;7.10;2.37;;;;;;;27.52;nan;101402.16;6226125;22;20405;-90
2022/09/03 12:50:09;;;;;;;5.83;1.70;;;;;;;27.35;nan;101388.50;6207847;22;20433;-90
2022/09/03 12:52:44;;;;;;;6.87;2.43;;;;;;;27.29;nan;101375.66;6226828;22;20469;-90
2022/09/03 12:55:28;;;;;;;11.63;2.53;;;;;;;27.23;nan;101390.84;6201741;22;20406;-90
2022/09/03 12:58:17;;;;;;;8.03;2.80;;;;;;;27.29;nan;101386.06;6225968;22;20413;-90
2022/09/03 13:00:50;;;;;;;6.30;1.43;;;;;;;27.49;nan;101397.16;6226828;22;20517;-91
2022/09/03 13:03:48;;;;;;;12.57;2.17;;;;;;;27.57;nan;101388.13;6226573;22;20715;-90
2022/09/03 13:06:20;;;;;;;11.47;3.20;;;;;;;27.71;nan;101385.50;6228486;22;20406;-91
2022/09/03 13:08:55;;;;;;;8.47;2.10;;;;;;;27.77;nan;101381.50;6226715;22;20492;-91
2022/09/03 13:11:41;;;;;;;6.33;1.90;;;;;;;27.87;nan;101392.69;6226282;22;20405;-91
2022/09/03 13:14:11;;;;;;;7.40;2.20;;;;;;;27.69;nan;101387.78;6225937;22;20398;-90
2022/09/03 13:17:20;;;;;;;4.87;1.37;;;;;;;27.89;nan;101392.41;6203132;22;20731;-91
2022/09/03 13:20:12;;;;;;;5.00;1.30;;;;;;;27.85;nan;101383.72;6226965;22;20404;-90
2022/09/03 13:23:07;;;;;;;7.60;1.50;;;;;;;27.73;nan;101402.88;6277544;22;20400;-91
2022/09/03 13:25:58;;;;;;;6.17;1.43;;;;;;;27.65;nan;101381.91;6226355;22;20387;-91
2022/09/03 13:28:51;;;;;;;4.93;1.90;;;;;;;27.68;nan;101388.91;6252258;22;20789;-91
2022/09/03 13:31:46;;;;;;;6.73;1.93;;;;;;;27.59;nan;101371.81;6225658;22;20774;-92
2022/09/03 13:34:31;;;;;;;7.07;2.07;;;;;;;27.50;nan;101371.59;6226147;22;20715;-91
2022/09/03 13:37:42;;;;;;;5.17;1.10;;;;;;;27.63;nan;101380.50;6202373;22;20513;-91
2022/09/03 13:40:26;;;;;;;6.67;2.07;;;;;;;27.58;nan;101369.31;6250405;22;20413;-91
2022/09/03 13:43:06;;;;;;;7.00;1.50;;;;;;;27.70;nan;101364.16;6228218;22;20729;-91
2022/09/03 13:45:42;;;;;;;9.50;1.20;;;;;;;27.69;nan;101366.13;6202664;22;20429;-91
2022/09/03 13:51:24;;;;;;;7.53;1.73;;;;;;;27.62;nan;101367.59;6247846;22;20513;-91
2022/09/03 13:54:28;;;;;;;16.00;1.43;;;;;;;27.54;nan;101363.38;6252429;22;20459;-90
2022/09/03 13:58:00;;;;;;;12.33;1.80;;;;;;;27.50;nan;101353.91;6257322;22;20544;-90
2022/09/03 14:01:05;;;;;;;5.10;1.50;;;;;;;27.65;nan;101351.00;6274635;22;20749;-90
2022/09/03 14:03:49;;;;;;;7.67;1.53;;;;;;;27.55;nan;101350.19;6217738;22;20970;-90
2022/09/03 14:06:26;;;;;;;7.93;2.07;;;;;;;27.37;nan;101354.53;6228065;22;20444;-91
2022/09/03 14:09:39;;;;;;;4.80;1.30;;;;;;;27.28;nan;101367.53;6227835;22;20528;-91
2022/09/03 14:15:31;;;;;;;8.03;1.60;;;;;;;27.48;nan;101362.63;6279394;22;20481;-90
2022/09/03 14:18:14;;;;;;;6.87;1.30;;;;;;;27.44;nan;101336.25;6227529;22;20476;-89
2022/09/03 14:21:36;;;;;;;4.70;1.40;;;;;;;27.76;nan;101354.53;6252638;22;20465;-91
2022/09/03 14:24:22;;;;;;;5.10;1.70;;;;;;;27.68;nan;101343.97;6100414;23;20465;-90
2022/09/03 14:27:01;;;;;;;5.90;1.50;;;;;;;27.62;nan;101333.88;6054689;23;20421;-91
2022/09/03 14:33:10;;;;;;;7.27;2.03;;;;;;;27.58;nan;101330.81;6268732;22;20385;-91
2022/09/03 14:35:50;;;;;;;9.70;1.93;;;;;;;27.80;nan;101325.56;6258374;22;20410;-92
2022/09/03 14:39:05;;;;;;;4.10;1.17;;;;;;;27.93;nan;101318.41;6256926;22;20864;-94
2022/09/03 14:41:45;;;;;;;8.00;1.67;;;;;;;28.01;nan;101319.75;6252808;22;20425;-92
2022/09/03 14:44:42;;;;;;;6.50;1.60;;;;;;;27.93;nan;101315.59;6278912;22;20409;-92
2022/09/03 14:51:19;;;;;;;10.63;1.73;;;;;;;27.77;nan;101314.09;6278453;22;20441;-94
2022/09/03 14:58:07;;;;;;;5.13;1.53;;;;;;;27.61;nan;101306.94;6283689;22;20879;-94
2022/09/03 15:01:18;;;;;;;7.10;1.80;;;;;;;27.68;nan;101304.63;6287072;22;20901;-94
2022/09/03 15:04:46;;;;;;;6.33;2.07;;;;;;;27.73;nan;101296.13;6280494;22;20382;-94
2022/09/03 15:15:00;;;;;;;6.37;1.50;;;;;;;27.47;nan;101293.53;6216169;22;20491;-94
2022/09/03 15:17:57;;;;;;;8.57;1.47;;;;;;;27.57;nan;101286.13;6142619;23;20415;-94
2022/09/03 15:24:47;;;;;;;7.10;1.70;;;;;;;27.46;nan;101291.84;6216143;23;20387;-94
2022/09/03 15:42:26;;;;;;;4.70;1.57;;;;;;;26.92;nan;101289.13;6279654;22;20394;-92
2022/09/03 15:45:05;;;;;;;10.90;1.70;;;;;;;27.02;nan;101279.81;6201185;22;20417;-93
2022/09/03 15:55:38;;;;;;;9.37;1.60;;;;;;;26.95;nan;101293.34;6278819;22;20408;-94
2022/09/03 15:58:31;;;;;;;9.53;2.30;;;;;;;26.98;nan;101301.16;6202636;22;20553;-93
2022/09/03 16:08:17;;;;;;;8.10;1.80;;;;;;;26.97;nan;101305.94;6287923;22;20746;-93
2022/09/03 16:11:28;;;;;;;8.50;1.90;;;;;;;26.89;nan;101303.75;6230002;22;20437;-93
2022/09/03 16:18:20;;;;;;;5.33;1.20;;;;;;;26.65;nan;101303.56;6278166;22;20491;-94
2022/09/03 16:21:21;;;;;;;10.83;2.03;;;;;;;26.46;nan;101305.34;6251567;22;20409;-92
2022/09/03 16:24:29;;;;;;;10.20;2.17;;;;;;;26.20;nan;101309.31;6250984;22;20418;-93
2022/09/03 16:27:36;;;;;;;11.20;1.60;;;;;;;26.04;nan;101303.75;6253210;22;20394;-93
2022/09/03 16:30:23;;;;;;;3.77;1.63;;;;;;;25.99;nan;101294.50;6251566;22;20568;-88
2022/09/03 16:33:35;;;;;;;6.37;1.83;;;;;;;25.98;nan;101293.66;6205146;22;20410;-88
2022/09/03 16:37:03;;;;;;;8.83;1.53;;;;;;;25.98;nan;101282.44;6228434;22;20424;-90
2022/09/03 16:40:31;;;;;;;7.73;1.87;;;;;;;26.02;nan;101289.19;6136778;23;20386;-93
2022/09/03 16:47:20;;;;;;;10.10;2.00;;;;;;;26.19;nan;101293.59;6175835;23;20424;-92
2022/09/03 16:54:18;;;;;;;9.83;2.33;;;;;;;26.04;nan;101300.94;6184579;23;20376;-92
2022/09/03 16:57:24;;;;;;;8.53;2.00;;;;;;;25.91;nan;101307.13;6115170;23;20494;-95
2022/09/03 17:11:29;;;;;;;11.87;2.23;;;;;;;25.57;nan;101325.63;6154969;23;20534;-93
2022/09/03 17:17:49;;;;;;;11.97;2.07;;;;;;;25.31;nan;101324.75;6154859;23;20397;-93
2022/09/03 17:27:46;;;;;;;7.77;1.73;;;;;;;25.19;nan;101336.22;6171754;23;20852;-93
2022/09/03 17:30:57;;;;;;;6.70;2.20;;;;;;;25.00;nan;101337.84;6220320;23;20449;-94
2022/09/03 17:33:51;;;;;;;12.27;2.33;;;;;;;24.86;nan;101347.81;6245230;23;20422;-92
2022/09/03 17:40:05;;;;;;;9.43;2.20;;;;;;;24.65;nan;101346.88;6246946;23;20366;-93
2022/09/03 17:43:15;;;;;;;10.80;3.33;;;;;;;24.56;nan;101343.78;6220136;23;20415;-94
2022/09/03 17:46:10;;;;;;;9.13;2.40;;;;;;;24.49;nan;101348.78;6256014;22;20436;-93
2022/09/03 17:53:03;;;;;;;14.73;4.03;;;;;;;24.43;nan;101345.13;6277225;22;20389;-93
2022/09/03 17:55:52;;;;;;;11.47;2.60;;;;;;;24.24;nan;101343.06;6251413;22;20412;-93
2022/09/03 17:58:32;;;;;;;6.70;2.27;;;;;;;24.14;nan;101341.00;6225572;22;20471;-91
2022/09/03 18:01:09;;;;;;;14.07;3.50;;;;;;;23.94;nan;101330.53;6250052;22;20930;-91
2022/09/03 18:03:46;;;;;;;8.83;3.03;;;;;;;23.82;nan;101338.28;6250760;22;20381;-92
2022/09/03 18:06:52;;;;;;;15.53;2.50;;;;;;;23.69;nan;101327.53;6225586;22;20409;-92
2022/09/03 18:13:43;;;;;;;13.37;2.47;;;;;;;23.26;nan;101323.81;6276570;22;20424;-94
2022/09/03 18:16:28;;;;;;;12.33;2.50;;;;;;;23.11;nan;101318.03;6250322;22;20413;-93
2022/09/03 20:11:57;;;;;;;20.93;2.97;;;;;;;21.15;nan;101388.00;6255992;22;20437;-93
2022/09/03 20:14:28;;;;;;;12.07;2.10;;;;;;;21.10;nan;101393.44;6226175;22;20398;-92
2022/09/03 20:17:15;;;;;;;9.23;2.63;;;;;;;21.07;nan;101393.94;6225688;22;20401;-92
2022/09/03 20:20:07;;;;;;;14.60;2.77;;;;;;;21.02;nan;101391.91;6250825;22;20401;-91
2022/09/03 20:22:59;;;;;;;7.30;2.13;;;;;;;21.00;nan;101390.44;6259448;22;20430;-93
2022/09/03 20:26:02;;;;;;;8.67;2.33;;;;;;;21.02;nan;101402.16;6204341;22;20947;-91
2022/09/03 20:28:40;;;;;;;14.73;3.20;;;;;;;21.02;nan;101411.34;6230890;22;20446;-91
2022/09/03 20:31:14;;;;;;;11.90;2.23;;;;;;;20.97;nan;101404.88;6226094;22;20560;-92
2022/09/03 20:34:15;;;;;;;8.37;2.50;;;;;;;20.98;nan;101414.88;6251703;22;20421;-92
2022/09/03 20:36:54;;;;;;;8.60;2.20;;;;;;;20.93;nan;101409.22;6226311;22;20405;-92
2022/09/03 20:39:43;;;;;;;14.23;2.20;;;;;;;20.96;nan;101422.63;6203686;22;20473;-92
2022/09/03 20:42:34;;;;;;;9.60;2.50;;;;;;;20.90;nan;101412.50;6226047;22;20488;-92
2022/09/03 20:45:23;;;;;;;6.40;2.50;;;;;;;20.96;nan;101425.41;6229939;22;20819;-92
2022/09/03 20:47:58;;;;;;;8.33;2.97;;;;;;;20.95;nan;101429.28;6249390;22;20484;-92
2022/09/03 20:50:42;;;;;;;14.00;2.03;;;;;;;20.91;nan;101436.41;6250847;22;20468;-92
2022/09/03 20:57:04;;;;;;;11.83;4.00;;;;;;;20.88;nan;101434.13;6276771;22;20418;-92
2022/09/03 21:00:13;;;;;;;14.90;3.47;;;;;;;20.84;nan;101435.69;6225146;22;20394;-91
2022/09/03 21:03:03;;;;;;;20.27;2.40;;;;;;;20.86;nan;101442.69;6105655;23;20555;-90
2022/09/03 21:05:34;;;;;;;14.03;2.70;;;;;;;20.83;nan;101440.41;6129066;23;21203;-90
2022/09/03 21:08:15;;;;;;;7.43;2.20;;;;;;;20.87;nan;101454.66;6105866;23;20409;-90
2022/09/03 21:11:22;;;;;;;11.20;2.30;;;;;;;20.86;nan;101452.97;6104800;23;20918;-89
2022/09/03 21:14:16;;;;;;;16.50;3.90;;;;;;;20.82;nan;101455.38;6153896;23;20641;-90
2022/09/03 21:17:05;;;;;;;18.23;2.67;;;;;;;20.78;nan;101451.44;6153591;23;20424;-90
2022/09/03 21:19:54;;;;;;;8.77;2.57;;;;;;;20.79;nan;101457.81;6153745;23;20509;-90
2022/09/03 21:22:27;;;;;;;8.23;1.80;;;;;;;20.79;nan;101468.91;6153674;23;20524;-90
2022/09/03 21:25:00;;;;;;;10.73;2.40;;;;;;;20.77;nan;101471.97;6105313;23;20931;-90
2022/09/03 21:28:08;;;;;;;11.80;2.40;;;;;;;20.75;nan;101456.63;6128902;23;20416;-90
2022/09/03 21:30:39;;;;;;;9.50;2.67;;;;;;;20.75;nan;101474.16;6143080;23;20536;-90
2022/09/03 21:33:17;;;;;;;9.47;2.73;;;;;;;20.73;nan;101469.91;6173247;22;20445;-90
2022/09/03 21:36:29;;;;;;;15.87;2.60;;;;;;;20.72;nan;101474.63;6224945;22;20535;-90
2022/09/03 21:39:08;;;;;;;23.20;4.57;;;;;;;20.71;nan;101477.66;6129596;23;20773;-90
2022/09/03 21:41:44;;;;;;;9.83;2.63;;;;;;;20.68;nan;101488.16;6105766;23;20488;-90
2022/09/03 21:44:37;;;;;;;14.13;3.33;;;;;;;20.69;nan;101487.06;6128240;23;20405;-90
2022/09/03 21:47:29;;;;;;;16.73;2.93;;;;;;;20.67;nan;101492.00;6153243;23;20552;-90
2022/09/03 21:50:06;;;;;;;10.53;2.90;;;;;;;20.64;nan;101484.16;6042021;23;20491;-90
2022/09/03 21:53:07;;;;;;;12.90;3.20;;;;;;;20.64;nan;101495.28;5937415;24;20458;-90
2022/09/03 21:55:59;;;;;;;6.83;1.93;;;;;;;20.64;nan;101497.19;5958945;24;20924;-90
2022/09/03 21:58:30;;;;;;;10.27;2.30;;;;;;;20.65;nan;101493.34;5958166;24;20542;-90
2022/09/03 22:01:11;;;;;;;12.20;3.00;;;;;;;20.65;nan;101490.56;5980385;24;20489;-90
2022/09/03 22:03:40;;;;;;;7.83;2.30;;;;;;;20.64;nan;101489.72;5959658;24;20415;-90
2022/09/03 22:06:16;;;;;;;19.30;2.70;;;;;;;20.65;nan;101494.19;5912468;24;20423;-90
2022/09/03 22:08:53;;;;;;;13.10;2.47;;;;;;;20.65;nan;101490.56;5849818;24;20414;-90
2022/09/03 22:11:33;;;;;;;8.50;2.53;;;;;;;20.63;nan;101490.81;5835603;24;20446;-90
2022/09/03 22:14:09;;;;;;;10.30;2.93;;;;;;;20.61;nan;101484.63;5890259;24;20522;-92
2022/09/03 22:16:42;;;;;;;11.30;2.17;;;;;;;20.64;nan;101506.38;5927172;24;20412;-89
2022/09/03 22:19:11;;;;;;;10.30;2.60;;;;;;;20.60;nan;101499.63;5954144;24;20434;-89
2022/09/03 22:21:58;;;;;;;15.43;2.10;;;;;;;20.59;nan;101497.91;5931826;24;20547;-90
2022/09/03 22:24:33;;;;;;;9.80;2.57;;;;;;;20.61;nan;101506.00;5931379;24;20432;-90
2022/09/03 22:27:43;;;;;;;8.80;2.43;;;;;;;20.58;nan;101503.75;6054227;23;20995;-90
2022/09/03 22:30:17;;;;;;;6.70;1.90;;;;;;;20.52;nan;101499.16;6182315;23;20963;-90
2022/09/03 22:33:14;;;;;;;10.80;2.23;;;;;;;20.54;nan;101505.31;6197226;23;20500;-90
2022/09/03 22:35:51;;;;;;;10.83;2.10;;;;;;;20.53;nan;101501.69;6220923;23;20403;-90
2022/09/03 22:38:36;;;;;;;14.20;2.13;;;;;;;20.48;nan;101512.66;6220918;23;20769;-90
2022/09/03 22:41:21;;;;;;;11.93;2.70;;;;;;;20.42;nan;101505.28;6221288;23;20513;-90
2022/09/03 22:43:50;;;;;;;13.03;2.23;;;;;;;20.40;nan;101510.22;6220256;23;20394;-88
2022/09/03 22:46:19;;;;;;;12.33;2.13;;;;;;;20.28;nan;101501.88;6235249;22;20520;-89
2022/09/03 22:49:07;;;;;;;11.23;2.53;;;;;;;20.32;nan;101511.41;6201898;22;20397;-90
2022/09/03 22:52:23;;;;;;;6.40;2.27;;;;;;;20.22;nan;101508.38;6251489;22;20432;-89
2022/09/03 22:55:03;;;;;;;12.10;3.10;;;;;;;20.22;nan;101513.06;6235034;22;20398;-89
2022/09/03 22:57:33;;;;;;;14.67;2.93;;;;;;;20.19;nan;101519.13;6251347;22;20484;-89
2022/09/03 23:00:05;;;;;;;10.47;2.80;;;;;;;20.12;nan;101515.59;6201965;22;20477;-90
2022/09/03 23:02:33;;;;;;;8.03;2.37;;;;;;;20.10;nan;101513.06;6226460;22;20485;-90
2022/09/03 23:05:18;;;;;;;14.10;2.27;;;;;;;20.10;nan;101523.31;6250889;22;20402;-90
2022/09/03 23:08:08;;;;;;;15.10;2.60;;;;;;;20.05;nan;101500.97;6228294;22;20482;-90
2022/09/03 23:10:52;;;;;;;9.40;2.23;;;;;;;20.09;nan;101510.53;6227413;22;20836;-90
2022/09/03 23:13:45;;;;;;;14.17;2.50;;;;;;;20.09;nan;101516.06;6226902;22;20588;-90
2022/09/03 23:16:53;;;;;;;10.73;2.30;;;;;;;20.05;nan;101509.31;6213131;22;20422;-90
2022/09/03 23:19:24;;;;;;;10.40;2.10;;;;;;;20.07;nan;101519.09;6077351;23;20421;-90
2022/09/03 23:21:59;;;;;;;7.30;2.00;;;;;;;20.08;nan;101514.38;6076593;23;20402;-90
2022/09/03 23:24:36;;;;;;;12.30;2.33;;;;;;;20.00;nan;101504.50;6100924;23;20418;-90
2022/09/03 23:27:07;;;;;;;12.67;2.73;;;;;;;19.99;nan;101508.34;6054143;23;20417;-90
2022/09/03 23:29:42;;;;;;;10.27;2.67;;;;;;;20.00;nan;101512.81;6053976;23;20489;-90
2022/09/03 23:32:10;;;;;;;15.43;3.20;;;;;;;19.92;nan;101494.56;6100127;23;20437;-90
2022/09/03 23:34:39;;;;;;;21.20;2.70;;;;;;;19.99;nan;101506.41;6077312;23;20481;-90
2022/09/03 23:37:45;;;;;;;12.57;2.60;;;;;;;19.98;nan;101501.94;6053587;23;20446;-90
2022/09/03 23:40:47;;;;;;;8.67;2.00;;;;;;;19.95;nan;101496.88;6119893;23;20492;-90
2022/09/03 23:43:39;;;;;;;10.60;2.83;;;;;;;19.92;nan;101494.56;6100411;23;20418;-90
2022/09/03 23:46:29;;;;;;;6.63;2.17;;;;;;;19.86;nan;101495.50;6009219;23;20972;-90
2022/09/03 23:49:21;;;;;;;10.03;2.03;;;;;;;19.81;nan;101489.84;6009685;23;20508;-90
2022/09/03 23:52:27;;;;;;;10.97;2.53;;;;;;;19.83;nan;101492.34;6009863;23;20800;-90
2022/09/03 23:55:18;;;;;;;12.67;2.90;;;;;;;19.79;nan;101480.91;6017115;23;20942;-90
2022/09/03 23:57:57;;;;;;;14.40;2.33;;;;;;;19.81;nan;101481.53;6108397;23;20412;-90
